createdAt,value
2022-12-11T00:00:37.523Z,956.13
2022-12-11T00:01:37.520Z,956.14
2022-12-11T00:02:37.484Z,956.09
2022-12-11T00:03:37.559Z,956.11
2022-12-11T00:04:37.475Z,956.14
2022-12-11T00:05:37.455Z,956.12
2022-12-11T00:06:37.462Z,956.11
2022-12-11T00:07:37.477Z,956.17
2022-12-11T00:08:37.411Z,956.11
2022-12-11T00:09:37.407Z,956.13
2022-12-11T00:10:38.082Z,956.10
2022-12-11T00:11:37.393Z,956.15
2022-12-11T00:12:37.385Z,956.07
2022-12-11T00:13:37.398Z,956.12
2022-12-11T00:14:37.346Z,956.15
2022-12-11T00:15:37.388Z,956.15
2022-12-11T00:16:37.409Z,956.17
2022-12-11T00:17:37.338Z,956.18
2022-12-11T00:18:37.303Z,956.13
2022-12-11T00:19:37.338Z,956.14
2022-12-11T00:20:37.318Z,956.13
2022-12-11T00:21:37.282Z,956.19
2022-12-11T00:22:37.268Z,956.11
2022-12-11T00:23:37.274Z,956.16
2022-12-11T00:24:37.242Z,956.21
2022-12-11T00:25:37.282Z,956.17
2022-12-11T00:26:37.256Z,956.17
2022-12-11T00:27:37.221Z,956.20
2022-12-11T00:28:37.226Z,956.20
2022-12-11T00:29:37.211Z,956.21
2022-12-11T00:30:37.186Z,956.18
2022-12-11T00:31:37.242Z,956.15
2022-12-11T00:32:37.843Z,956.17
2022-12-11T00:33:37.142Z,956.14
2022-12-11T00:34:37.149Z,956.17
2022-12-11T00:35:37.150Z,956.14
2022-12-11T00:36:37.156Z,956.17
2022-12-11T00:37:37.155Z,956.18
2022-12-11T00:38:37.090Z,956.17
2022-12-11T00:39:37.077Z,956.23
2022-12-11T00:40:37.080Z,956.24
2022-12-11T00:41:37.086Z,956.21
2022-12-11T00:42:37.042Z,956.21
2022-12-11T00:43:37.053Z,956.19
2022-12-11T00:44:37.047Z,956.19
2022-12-11T00:45:37.093Z,956.17
2022-12-11T00:46:37.009Z,956.18
2022-12-11T00:47:36.988Z,956.20
2022-12-11T00:48:37.000Z,956.22
2022-12-11T00:49:36.966Z,956.23
2022-12-11T00:50:36.966Z,956.23
2022-12-11T00:51:36.955Z,956.19
2022-12-11T00:52:36.958Z,956.24
2022-12-11T00:53:36.967Z,956.25
2022-12-11T00:54:36.911Z,956.26
2022-12-11T00:55:36.902Z,956.30
2022-12-11T00:56:36.918Z,956.23
2022-12-11T00:57:36.898Z,956.22
2022-12-11T00:58:36.900Z,956.22
2022-12-11T00:59:36.871Z,956.22
2022-12-11T01:00:37.781Z,956.25
2022-12-11T01:01:36.860Z,956.26
2022-12-11T01:02:36.901Z,956.19
2022-12-11T01:03:36.838Z,956.22
2022-12-11T01:04:36.802Z,956.19
2022-12-11T01:05:36.791Z,956.19
2022-12-11T01:06:36.816Z,956.16
2022-12-11T01:07:36.782Z,956.19
2022-12-11T01:08:38.669Z,956.23
2022-12-11T01:09:36.767Z,956.25
2022-12-11T01:10:36.795Z,956.25
2022-12-11T01:12:26.567Z,956.26
2022-12-11T01:13:26.536Z,956.28
2022-12-11T01:14:26.512Z,956.27
2022-12-11T01:15:26.513Z,956.27
2022-12-11T01:16:26.589Z,956.25
2022-12-11T01:17:26.506Z,956.22
2022-12-11T01:18:26.535Z,956.25
2022-12-11T01:19:26.467Z,956.24
2022-12-11T01:20:26.447Z,956.27
2022-12-11T01:21:26.503Z,956.24
2022-12-11T01:22:26.426Z,956.29
2022-12-11T01:23:26.419Z,956.33
2022-12-11T01:24:26.419Z,956.28
2022-12-11T01:25:26.427Z,956.28
2022-12-11T01:26:26.398Z,956.31
2022-12-11T01:27:26.372Z,956.26
2022-12-11T01:28:26.392Z,956.35
2022-12-11T01:29:26.387Z,956.26
2022-12-11T01:30:26.396Z,956.34
2022-12-11T01:31:26.334Z,956.23
2022-12-11T01:32:26.360Z,956.28
2022-12-11T01:33:26.309Z,956.30
2022-12-11T01:34:26.314Z,956.30
2022-12-11T01:35:26.308Z,956.32
2022-12-11T01:36:26.286Z,956.33
2022-12-11T01:37:26.265Z,956.36
2022-12-11T01:38:26.299Z,956.38
2022-12-11T01:39:26.248Z,956.41
2022-12-11T01:40:26.257Z,956.50
2022-12-11T01:41:26.250Z,956.46
2022-12-11T01:42:26.223Z,956.47
2022-12-11T01:43:26.250Z,956.54
2022-12-11T01:44:26.218Z,956.52
2022-12-11T01:45:27.250Z,956.49
2022-12-11T01:46:26.265Z,956.54
2022-12-11T01:47:26.166Z,956.44
2022-12-11T01:48:26.167Z,956.47
2022-12-11T01:49:26.135Z,956.48
2022-12-11T01:50:26.189Z,956.48
2022-12-11T01:51:26.116Z,956.46
2022-12-11T01:52:26.102Z,956.50
2022-12-11T01:53:26.106Z,956.56
2022-12-11T01:54:26.080Z,956.50
2022-12-11T01:55:26.120Z,956.50
2022-12-11T01:56:26.080Z,956.47
2022-12-11T01:57:26.055Z,956.53
2022-12-11T01:58:26.037Z,956.52
2022-12-11T01:59:26.035Z,956.53
2022-12-11T02:00:26.014Z,956.65
2022-12-11T02:01:26.049Z,956.56
2022-12-11T02:02:26.073Z,956.55
2022-12-11T02:03:26.002Z,956.67
2022-12-11T02:04:25.992Z,956.62
2022-12-11T02:05:26.087Z,956.66
2022-12-11T02:06:25.950Z,956.67
2022-12-11T02:07:25.941Z,956.62
2022-12-11T02:08:26.055Z,956.62
2022-12-11T02:09:25.952Z,956.58
2022-12-11T02:10:25.918Z,956.58
2022-12-11T02:11:25.909Z,956.64
2022-12-11T02:12:25.881Z,956.62
2022-12-11T02:13:25.894Z,956.63
2022-12-11T02:14:25.892Z,956.65
2022-12-11T02:15:25.903Z,956.58
2022-12-11T02:16:25.923Z,956.61
2022-12-11T02:17:25.829Z,956.53
2022-12-11T02:18:25.820Z,956.50
2022-12-11T02:19:25.806Z,956.49
2022-12-11T02:20:25.883Z,956.48
2022-12-11T02:21:25.817Z,956.51
2022-12-11T02:22:25.781Z,956.50
2022-12-11T02:23:25.762Z,956.47
2022-12-11T02:24:25.759Z,956.38
2022-12-11T02:25:25.741Z,956.45
2022-12-11T02:26:25.755Z,956.39
2022-12-11T02:27:25.761Z,956.38
2022-12-11T02:28:25.748Z,956.42
2022-12-11T02:29:25.697Z,956.42
2022-12-11T02:30:25.697Z,956.39
2022-12-11T02:31:25.787Z,956.35
2022-12-11T02:32:25.717Z,956.31
2022-12-11T02:33:25.694Z,956.36
2022-12-11T02:34:25.657Z,956.34
2022-12-11T02:35:25.631Z,956.32
2022-12-11T02:36:25.635Z,956.33
2022-12-11T02:37:25.642Z,956.37
2022-12-11T02:38:25.600Z,956.36
2022-12-11T02:39:25.606Z,956.32
2022-12-11T02:40:25.629Z,956.36
2022-12-11T02:41:25.567Z,956.40
2022-12-11T02:42:25.608Z,956.34
2022-12-11T02:43:25.583Z,956.39
2022-12-11T02:44:25.578Z,956.38
2022-12-11T02:45:25.532Z,956.39
2022-12-11T02:46:25.553Z,956.41
2022-12-11T02:47:25.509Z,956.43
2022-12-11T02:48:25.514Z,956.42
2022-12-11T02:49:25.493Z,956.41
2022-12-11T02:50:25.496Z,956.39
2022-12-11T02:51:25.489Z,956.45
2022-12-11T02:52:25.475Z,956.47
2022-12-11T02:53:25.450Z,956.43
2022-12-11T02:54:25.425Z,956.51
2022-12-11T02:55:25.432Z,956.44
2022-12-11T02:56:25.421Z,956.50
2022-12-11T02:57:25.409Z,956.50
2022-12-11T02:58:25.438Z,956.51
2022-12-11T02:59:25.382Z,956.49
2022-12-11T03:00:25.393Z,956.55
2022-12-11T03:01:25.414Z,956.53
2022-12-11T03:02:25.420Z,956.46
2022-12-11T03:03:25.326Z,956.50
2022-12-11T03:04:25.373Z,956.47
2022-12-11T03:05:25.305Z,956.56
2022-12-11T03:06:25.330Z,956.50
2022-12-11T03:07:25.284Z,956.58
2022-12-11T03:08:25.368Z,956.59
2022-12-11T03:09:25.261Z,956.60
2022-12-11T03:10:25.304Z,956.57
2022-12-11T03:11:25.275Z,956.65
2022-12-11T03:12:25.247Z,956.60
2022-12-11T03:13:25.223Z,956.57
2022-12-11T03:14:25.224Z,956.61
2022-12-11T03:15:25.236Z,956.60
2022-12-11T03:16:25.264Z,956.58
2022-12-11T03:17:25.172Z,956.60
2022-12-11T03:18:25.182Z,956.56
2022-12-11T03:19:25.184Z,956.63
2022-12-11T03:20:25.161Z,956.56
2022-12-11T03:21:25.128Z,956.62
2022-12-11T03:22:25.175Z,956.60
2022-12-11T03:23:25.139Z,956.57
2022-12-11T03:24:25.118Z,956.59
2022-12-11T03:25:25.105Z,956.64
2022-12-11T03:26:25.072Z,956.61
2022-12-11T03:27:25.067Z,956.59
2022-12-11T03:28:25.087Z,956.58
2022-12-11T03:29:25.052Z,956.62
2022-12-11T03:30:25.144Z,956.63
2022-12-11T03:31:25.026Z,956.57
2022-12-11T03:32:25.007Z,956.58
2022-12-11T03:33:25.003Z,956.54
2022-12-11T03:34:25.011Z,956.59
2022-12-11T03:35:25.018Z,956.59
2022-12-11T03:36:24.970Z,956.63
2022-12-11T03:37:24.970Z,956.67
2022-12-11T03:38:24.944Z,956.69
2022-12-11T03:39:24.951Z,956.66
2022-12-11T03:40:24.974Z,956.68
2022-12-11T03:41:24.927Z,956.74
2022-12-11T03:42:24.911Z,956.72
2022-12-11T03:43:24.903Z,956.71
2022-12-11T03:44:24.882Z,956.76
2022-12-11T03:45:24.895Z,956.73
2022-12-11T03:46:24.968Z,956.76
2022-12-11T03:47:24.849Z,956.72
2022-12-11T03:48:24.848Z,956.74
2022-12-11T03:49:24.858Z,956.72
2022-12-11T03:50:24.824Z,956.74
2022-12-11T03:51:24.819Z,956.76
2022-12-11T03:52:24.832Z,956.72
2022-12-11T03:53:24.789Z,956.82
2022-12-11T03:54:24.777Z,956.75
2022-12-11T03:55:24.795Z,956.78
2022-12-11T03:56:24.768Z,956.73
2022-12-11T03:57:24.737Z,956.79
2022-12-11T03:58:24.750Z,956.79
2022-12-11T03:59:24.720Z,956.77
2022-12-11T04:00:24.727Z,956.83
2022-12-11T04:01:24.731Z,956.83
2022-12-11T04:02:24.691Z,956.82
2022-12-11T04:03:24.697Z,956.84
2022-12-11T04:04:24.761Z,956.83
2022-12-11T04:05:24.710Z,956.79
2022-12-11T04:06:24.651Z,956.80
2022-12-11T04:07:24.624Z,956.81
2022-12-11T04:08:24.675Z,956.81
2022-12-11T04:09:24.606Z,956.78
2022-12-11T04:10:24.638Z,956.79
2022-12-11T04:11:24.600Z,956.77
2022-12-11T04:12:24.591Z,956.74
2022-12-11T04:13:24.574Z,956.82
2022-12-11T04:14:24.549Z,956.70
2022-12-11T04:15:24.545Z,956.76
2022-12-11T04:16:24.546Z,956.80
2022-12-11T04:17:24.538Z,956.72
2022-12-11T04:18:24.506Z,956.78
2022-12-11T04:19:24.499Z,956.77
2022-12-11T04:20:24.520Z,956.77
2022-12-11T04:21:24.483Z,956.72
2022-12-11T04:22:24.491Z,956.77
2022-12-11T04:23:24.463Z,956.71
2022-12-11T04:24:24.469Z,956.74
2022-12-11T04:25:24.450Z,956.77
2022-12-11T04:26:24.446Z,956.77
2022-12-11T04:27:24.426Z,956.76
2022-12-11T04:28:24.429Z,956.74
2022-12-11T04:29:24.404Z,956.70
2022-12-11T04:30:28.033Z,956.74
2022-12-11T04:31:25.411Z,956.76
2022-12-11T04:32:24.355Z,956.78
2022-12-11T04:33:24.343Z,956.69
2022-12-11T04:34:24.373Z,956.80
2022-12-11T04:35:24.342Z,956.78
2022-12-11T04:36:24.347Z,956.77
2022-12-11T04:37:24.315Z,956.80
2022-12-11T04:38:24.295Z,956.76
2022-12-11T04:39:24.278Z,956.77
2022-12-11T04:40:24.327Z,956.76
2022-12-11T04:41:24.256Z,956.76
2022-12-11T04:42:24.288Z,956.70
2022-12-11T04:43:24.234Z,956.71
2022-12-11T04:44:24.254Z,956.70
2022-12-11T04:45:24.216Z,956.69
2022-12-11T04:46:24.290Z,956.65
2022-12-11T04:47:24.218Z,956.61
2022-12-11T04:48:24.195Z,956.64
2022-12-11T04:49:24.194Z,956.62
2022-12-11T04:50:24.174Z,956.64
2022-12-11T04:51:24.167Z,956.62
2022-12-11T04:52:24.163Z,956.56
2022-12-11T04:53:24.168Z,956.60
2022-12-11T04:54:24.115Z,956.53
2022-12-11T04:55:24.108Z,956.59
2022-12-11T04:56:24.098Z,956.54
2022-12-11T04:57:24.096Z,956.53
2022-12-11T04:58:24.101Z,956.53
2022-12-11T04:59:24.074Z,956.53
2022-12-11T05:00:24.092Z,956.51
2022-12-11T05:01:24.131Z,956.50
2022-12-11T05:02:24.110Z,956.54
2022-12-11T05:03:24.021Z,956.54
2022-12-11T05:04:24.006Z,956.60
2022-12-11T05:05:24.064Z,956.60
2022-12-11T05:06:23.985Z,956.61
2022-12-11T05:07:24.017Z,956.61
2022-12-11T05:08:23.998Z,956.62
2022-12-11T05:09:23.964Z,956.63
2022-12-11T05:10:23.980Z,956.68
2022-12-11T05:11:23.941Z,956.68
2022-12-11T05:12:23.929Z,956.66
2022-12-11T05:13:23.920Z,956.64
2022-12-11T05:14:23.903Z,956.61
2022-12-11T05:15:23.912Z,956.61
2022-12-11T05:16:23.989Z,956.62
2022-12-11T05:17:23.884Z,956.57
2022-12-11T05:18:23.854Z,956.57
2022-12-11T05:19:23.883Z,956.56
2022-12-11T05:20:23.842Z,956.58
2022-12-11T05:21:23.837Z,956.52
2022-12-11T05:22:23.844Z,956.57
2022-12-11T05:23:23.830Z,956.55
2022-12-11T05:24:23.792Z,956.49
2022-12-11T05:25:23.777Z,956.51
2022-12-11T05:26:23.792Z,956.42
2022-12-11T05:27:23.801Z,956.46
2022-12-11T05:28:23.749Z,956.39
2022-12-11T05:29:23.790Z,956.49
2022-12-11T05:30:23.737Z,956.46
2022-12-11T05:31:23.749Z,956.42
2022-12-11T05:32:23.731Z,956.43
2022-12-11T05:33:23.719Z,956.43
2022-12-11T05:34:23.696Z,956.42
2022-12-11T05:35:23.694Z,956.44
2022-12-11T05:36:23.672Z,956.47
2022-12-11T05:37:23.662Z,956.47
2022-12-11T05:38:23.651Z,956.42
2022-12-11T05:39:23.655Z,956.42
2022-12-11T05:40:23.622Z,956.37
2022-12-11T05:41:23.626Z,956.42
2022-12-11T05:42:28.646Z,956.34
2022-12-11T05:43:24.616Z,956.33
2022-12-11T05:44:23.585Z,956.33
2022-12-11T05:45:23.561Z,956.32
2022-12-11T05:46:23.589Z,956.34
2022-12-11T05:47:23.561Z,956.36
2022-12-11T05:48:23.589Z,956.42
2022-12-11T05:49:27.428Z,956.40
2022-12-11T05:50:24.509Z,956.43
2022-12-11T05:51:23.498Z,956.40
2022-12-11T05:52:23.490Z,956.44
2022-12-11T05:53:23.557Z,956.46
2022-12-11T05:54:23.465Z,956.50
2022-12-11T05:55:23.471Z,956.46
2022-12-11T05:56:23.465Z,956.44
2022-12-11T05:57:23.430Z,956.45
2022-12-11T05:58:23.422Z,956.47
2022-12-11T05:59:23.501Z,956.45
2022-12-11T06:00:23.411Z,956.47
2022-12-11T06:01:23.399Z,956.47
2022-12-11T06:02:23.466Z,956.39
2022-12-11T06:03:23.371Z,956.45
2022-12-11T06:04:23.410Z,956.45
2022-12-11T06:05:23.376Z,956.42
2022-12-11T06:06:23.339Z,956.37
2022-12-11T06:07:23.338Z,956.40
2022-12-11T06:08:23.341Z,956.40
2022-12-11T06:09:23.324Z,956.36
2022-12-11T06:10:23.290Z,956.42
2022-12-11T06:11:24.392Z,956.43
2022-12-11T06:12:23.300Z,956.42
2022-12-11T06:13:23.275Z,956.32
2022-12-11T06:14:23.249Z,956.32
2022-12-11T06:15:23.255Z,956.34
2022-12-11T06:16:23.316Z,956.33
2022-12-11T06:17:23.281Z,956.36
2022-12-11T06:18:23.272Z,956.32
2022-12-11T06:19:23.192Z,956.28
2022-12-11T06:20:23.213Z,956.34
2022-12-11T06:21:23.169Z,956.29
2022-12-11T06:22:23.166Z,956.31
2022-12-11T06:23:23.149Z,956.26
2022-12-11T06:24:23.145Z,956.25
2022-12-11T06:25:23.179Z,956.27
2022-12-11T06:26:23.119Z,956.31
2022-12-11T06:27:23.105Z,956.25
2022-12-11T06:28:23.102Z,956.25
2022-12-11T06:29:23.112Z,956.36
2022-12-11T06:30:23.094Z,956.33
2022-12-11T06:31:24.238Z,956.31
2022-12-11T06:32:23.052Z,956.37
2022-12-11T06:33:23.039Z,956.31
2022-12-11T06:34:23.045Z,956.35
2022-12-11T06:35:23.051Z,956.45
2022-12-11T06:36:23.028Z,956.37
2022-12-11T06:37:23.008Z,956.33
2022-12-11T06:38:22.986Z,956.35
2022-12-11T06:39:22.975Z,956.36
2022-12-11T06:40:22.996Z,956.40
2022-12-11T06:41:22.967Z,956.38
2022-12-11T06:42:22.962Z,956.38
2022-12-11T06:43:22.974Z,956.37
2022-12-11T06:44:22.925Z,956.38
2022-12-11T06:45:22.915Z,956.36
2022-12-11T06:46:22.997Z,956.36
2022-12-11T06:47:22.897Z,956.40
2022-12-11T06:48:22.877Z,956.38
2022-12-11T06:49:22.947Z,956.42
2022-12-11T06:50:22.866Z,956.38
2022-12-11T06:51:22.862Z,956.40
2022-12-11T06:52:22.879Z,956.43
2022-12-11T06:53:22.833Z,956.37
2022-12-11T06:54:22.813Z,956.37
2022-12-11T06:55:22.816Z,956.42
2022-12-11T06:56:22.853Z,956.38
2022-12-11T06:57:22.791Z,956.43
2022-12-11T06:58:22.785Z,956.42
2022-12-11T06:59:22.771Z,956.48
2022-12-11T07:00:22.753Z,956.51
2022-12-11T07:01:22.903Z,956.51
2022-12-11T07:02:22.805Z,956.49
2022-12-11T07:03:22.724Z,956.46
2022-12-11T07:04:22.724Z,956.47
2022-12-11T07:05:22.731Z,956.49
2022-12-11T07:06:22.719Z,956.50
2022-12-11T07:07:22.701Z,956.47
2022-12-11T07:08:22.739Z,956.43
2022-12-11T07:09:22.657Z,956.44
2022-12-11T07:10:22.655Z,956.37
2022-12-11T07:11:22.651Z,956.40
2022-12-11T07:12:22.658Z,956.40
2022-12-11T07:13:22.639Z,956.36
2022-12-11T07:14:22.605Z,956.36
2022-12-11T07:15:22.586Z,956.38
2022-12-11T07:16:22.677Z,956.43
2022-12-11T07:17:22.615Z,956.40
2022-12-11T07:18:22.553Z,956.49
2022-12-11T07:19:22.567Z,956.42
2022-12-11T07:20:22.584Z,956.41
2022-12-11T07:21:22.524Z,956.45
2022-12-11T07:22:22.518Z,956.44
2022-12-11T07:23:22.496Z,956.41
2022-12-11T07:24:22.528Z,956.43
2022-12-11T07:25:22.520Z,956.44
2022-12-11T07:26:22.497Z,956.42
2022-12-11T07:27:22.467Z,956.51
2022-12-11T07:28:22.456Z,956.49
2022-12-11T07:29:22.430Z,956.46
2022-12-11T07:30:22.436Z,956.50
2022-12-11T07:31:22.466Z,956.57
2022-12-11T07:32:22.535Z,956.56
2022-12-11T07:33:22.403Z,956.54
2022-12-11T07:34:22.406Z,956.54
2022-12-11T07:35:22.404Z,956.59
2022-12-11T07:36:22.379Z,956.57
2022-12-11T07:37:22.387Z,956.62
2022-12-11T07:38:22.382Z,956.65
2022-12-11T07:39:22.332Z,956.68
2022-12-11T07:40:22.328Z,956.65
2022-12-11T07:41:22.345Z,956.62
2022-12-11T07:42:22.306Z,956.64
2022-12-11T07:43:22.317Z,956.61
2022-12-11T07:44:22.273Z,956.71
2022-12-11T07:45:22.268Z,956.67
2022-12-11T07:46:22.342Z,956.66
2022-12-11T07:47:22.239Z,956.67
2022-12-11T07:48:22.231Z,956.73
2022-12-11T07:49:22.260Z,956.65
2022-12-11T07:50:22.221Z,956.68
2022-12-11T07:51:22.212Z,956.67
2022-12-11T07:52:22.182Z,956.67
2022-12-11T07:53:22.173Z,956.59
2022-12-11T07:54:22.194Z,956.68
2022-12-11T07:55:22.199Z,956.65
2022-12-11T07:56:22.172Z,956.70
2022-12-11T07:57:22.125Z,956.70
2022-12-11T07:58:22.116Z,956.68
2022-12-11T07:59:22.117Z,956.69
2022-12-11T08:00:22.104Z,956.68
2022-12-11T08:01:22.152Z,956.69
2022-12-11T08:02:22.112Z,956.67
2022-12-11T08:03:22.062Z,956.70
2022-12-11T08:04:22.756Z,956.77
2022-12-11T08:05:22.057Z,956.75
2022-12-11T08:06:22.056Z,956.73
2022-12-11T08:07:22.037Z,956.77
2022-12-11T08:08:22.068Z,956.75
2022-12-11T08:09:21.996Z,956.80
2022-12-11T08:10:21.989Z,956.78
2022-12-11T08:11:21.996Z,956.72
2022-12-11T08:12:21.995Z,956.81
2022-12-11T08:13:22.029Z,956.69
2022-12-11T08:14:21.957Z,956.69
2022-12-11T08:15:21.930Z,956.76
2022-12-11T08:16:21.983Z,956.70
2022-12-11T08:17:27.384Z,956.71
2022-12-11T08:18:22.920Z,956.76
2022-12-11T08:19:21.927Z,956.73
2022-12-11T08:20:21.896Z,956.71
2022-12-11T08:21:21.865Z,956.76
2022-12-11T08:22:21.859Z,956.75
2022-12-11T08:23:21.847Z,956.77
2022-12-11T08:24:21.831Z,956.78
2022-12-11T08:25:21.856Z,956.75
2022-12-11T08:26:21.812Z,956.65
2022-12-11T08:27:21.819Z,956.71
2022-12-11T08:28:21.806Z,956.71
2022-12-11T08:29:21.811Z,956.71
2022-12-11T08:30:21.780Z,956.78
2022-12-11T08:31:21.831Z,956.75
2022-12-11T08:32:21.745Z,956.75
2022-12-11T08:33:21.738Z,956.82
2022-12-11T08:34:21.751Z,956.80
2022-12-11T08:35:21.726Z,956.81
2022-12-11T08:36:21.712Z,956.73
2022-12-11T08:37:21.728Z,956.74
2022-12-11T08:38:25.460Z,956.82
2022-12-11T08:39:21.674Z,956.79
2022-12-11T08:40:21.658Z,956.86
2022-12-11T08:41:21.651Z,956.82
2022-12-11T08:42:21.658Z,956.84
2022-12-11T08:43:21.677Z,956.79
2022-12-11T08:44:21.659Z,956.84
2022-12-11T08:45:21.617Z,956.85
2022-12-11T08:46:21.651Z,956.77
2022-12-11T08:47:21.589Z,956.83
2022-12-11T08:48:21.588Z,956.83
2022-12-11T08:49:21.596Z,956.87
2022-12-11T08:50:21.546Z,956.86
2022-12-11T08:51:21.548Z,956.83
2022-12-11T08:52:21.561Z,956.82
2022-12-11T08:53:21.520Z,956.85
2022-12-11T08:54:21.513Z,956.85
2022-12-11T08:55:21.544Z,956.85
2022-12-11T08:56:21.484Z,956.82
2022-12-11T08:57:21.491Z,956.87
2022-12-11T08:58:21.475Z,956.87
2022-12-11T08:59:21.459Z,956.86
2022-12-11T09:00:21.585Z,956.84
2022-12-11T09:01:21.631Z,956.87
2022-12-11T09:02:21.497Z,956.82
2022-12-11T09:03:21.410Z,956.82
2022-12-11T09:04:21.417Z,956.87
2022-12-11T09:05:21.396Z,956.91
2022-12-11T09:06:21.390Z,956.93
2022-12-11T09:07:21.405Z,956.90
2022-12-11T09:08:21.523Z,956.92
2022-12-11T09:09:21.348Z,956.92
2022-12-11T09:10:21.430Z,956.90
2022-12-11T09:11:21.337Z,956.90
2022-12-11T09:12:21.307Z,956.87
2022-12-11T09:13:21.337Z,956.89
2022-12-11T09:14:21.287Z,956.93
2022-12-11T09:15:21.325Z,956.92
2022-12-11T09:16:21.437Z,956.96
2022-12-11T09:17:21.263Z,956.90
2022-12-11T09:18:21.243Z,956.87
2022-12-11T09:19:21.275Z,956.88
2022-12-11T09:20:21.252Z,956.84
2022-12-11T09:21:21.249Z,956.85
2022-12-11T09:22:21.207Z,956.88
2022-12-11T09:23:21.204Z,956.79
2022-12-11T09:24:21.206Z,956.83
2022-12-11T09:25:21.176Z,956.84
2022-12-11T09:26:21.156Z,956.82
2022-12-11T09:27:21.209Z,956.87
2022-12-11T09:28:21.157Z,956.87
2022-12-11T09:29:21.152Z,956.91
2022-12-11T09:30:21.110Z,956.86
2022-12-11T09:31:21.171Z,956.83
2022-12-11T09:32:21.134Z,956.77
2022-12-11T09:33:21.092Z,956.84
2022-12-11T09:34:26.000Z,956.81
2022-12-11T09:35:22.060Z,956.81
2022-12-11T09:36:21.044Z,956.78
2022-12-11T09:37:21.053Z,956.77
2022-12-11T09:38:21.033Z,956.81
2022-12-11T09:39:21.038Z,956.76
2022-12-11T09:40:21.011Z,956.74
2022-12-11T09:41:21.030Z,956.75
2022-12-11T09:42:20.995Z,956.74
2022-12-11T09:43:20.970Z,956.81
2022-12-11T09:44:20.974Z,956.76
2022-12-11T09:45:20.971Z,956.69
2022-12-11T09:46:24.543Z,956.70
2022-12-11T09:47:20.930Z,956.75
2022-12-11T09:48:20.929Z,956.71
2022-12-11T09:49:20.908Z,956.71
2022-12-11T09:50:20.932Z,956.70
2022-12-11T09:51:20.912Z,956.68
2022-12-11T09:52:20.888Z,956.69
2022-12-11T09:53:20.862Z,956.65
2022-12-11T09:54:20.848Z,956.69
2022-12-11T09:55:20.867Z,956.62
2022-12-11T09:56:20.941Z,956.64
2022-12-11T09:57:20.841Z,956.61
2022-12-11T09:58:20.829Z,956.66
2022-12-11T09:59:20.795Z,956.66
2022-12-11T10:00:20.800Z,956.65
2022-12-11T10:01:20.843Z,956.64
2022-12-11T10:02:20.826Z,956.63
2022-12-11T10:03:20.782Z,956.62
2022-12-11T10:04:20.770Z,956.59
2022-12-11T10:05:20.730Z,956.64
2022-12-11T10:06:20.718Z,956.54
2022-12-11T10:07:20.743Z,956.57
2022-12-11T10:08:20.788Z,956.59
2022-12-11T10:09:20.726Z,956.59
2022-12-11T10:10:20.675Z,956.56
2022-12-11T10:11:20.683Z,956.61
2022-12-11T10:12:20.678Z,956.60
2022-12-11T10:13:20.682Z,956.57
2022-12-11T10:14:20.644Z,956.61
2022-12-11T10:15:20.653Z,956.57
2022-12-11T10:16:20.710Z,956.53
2022-12-11T10:17:20.601Z,956.60
2022-12-11T10:18:20.589Z,956.58
2022-12-11T10:19:20.601Z,956.59
2022-12-11T10:20:20.598Z,956.57
2022-12-11T10:21:20.604Z,956.59
2022-12-11T10:22:20.543Z,956.59
2022-12-11T10:23:20.544Z,956.61
2022-12-11T10:24:57.490Z,956.60
2022-12-11T10:25:21.537Z,956.53
2022-12-11T10:26:20.521Z,956.51
2022-12-11T10:27:20.519Z,956.45
2022-12-11T10:28:20.478Z,956.47
2022-12-11T10:29:20.496Z,956.43
2022-12-11T10:30:20.477Z,956.41
2022-12-11T10:31:20.504Z,956.39
2022-12-11T10:32:20.449Z,956.42
2022-12-11T10:33:20.473Z,956.39
2022-12-11T10:34:20.430Z,956.37
2022-12-11T10:35:20.427Z,956.39
2022-12-11T10:36:20.428Z,956.33
2022-12-11T10:37:20.395Z,956.40
2022-12-11T10:38:20.398Z,956.37
2022-12-11T10:39:20.396Z,956.34
2022-12-11T10:40:20.363Z,956.35
2022-12-11T10:41:20.341Z,956.34
2022-12-11T10:42:20.355Z,956.31
2022-12-11T10:43:20.330Z,956.33
2022-12-11T10:44:20.324Z,956.24
2022-12-11T10:45:20.311Z,956.29
2022-12-11T10:46:20.359Z,956.27
2022-12-11T10:47:20.281Z,956.26
2022-12-11T10:48:20.295Z,956.21
2022-12-11T10:49:20.256Z,956.19
2022-12-11T10:50:20.240Z,956.26
2022-12-11T10:51:20.272Z,956.22
2022-12-11T10:52:20.251Z,956.19
2022-12-11T10:53:20.218Z,956.20
2022-12-11T10:54:20.201Z,956.21
2022-12-11T10:55:20.196Z,956.22
2022-12-11T10:56:20.174Z,956.18
2022-12-11T10:57:20.218Z,956.17
2022-12-11T10:58:20.152Z,956.15
2022-12-11T10:59:24.005Z,956.15
2022-12-11T11:00:20.140Z,956.14
2022-12-11T11:01:20.170Z,956.14
2022-12-11T11:02:20.219Z,956.08
2022-12-11T11:03:20.128Z,956.14
2022-12-11T11:04:20.087Z,956.04
2022-12-11T11:05:20.076Z,956.10
2022-12-11T11:06:20.088Z,956.06
2022-12-11T11:07:20.073Z,956.06
2022-12-11T11:08:20.175Z,956.04
2022-12-11T11:09:20.049Z,956.08
2022-12-11T11:10:20.027Z,956.04
2022-12-11T11:11:20.045Z,956.01
2022-12-11T11:12:28.034Z,956.00
2022-12-11T11:13:20.003Z,955.99
2022-12-11T11:14:20.015Z,956.02
2022-12-11T11:15:20.012Z,955.94
2022-12-11T11:16:20.040Z,955.99
2022-12-11T11:17:19.968Z,955.95
2022-12-11T11:18:19.962Z,955.91
2022-12-11T11:19:19.976Z,955.80
2022-12-11T11:20:20.822Z,955.77
2022-12-11T11:21:19.901Z,955.81
2022-12-11T11:22:19.926Z,955.85
2022-12-11T11:23:19.916Z,955.81
2022-12-11T11:24:19.910Z,955.79
2022-12-11T11:25:19.890Z,955.78
2022-12-11T11:26:19.851Z,955.78
2022-12-11T11:27:19.928Z,955.73
2022-12-11T11:28:19.834Z,955.72
2022-12-11T11:29:19.837Z,955.75
2022-12-11T11:30:19.848Z,955.73
2022-12-11T11:31:19.859Z,955.71
2022-12-11T11:32:19.799Z,955.70
2022-12-11T11:33:19.810Z,955.73
2022-12-11T11:34:19.780Z,955.73
2022-12-11T11:35:19.783Z,955.67
2022-12-11T11:36:19.788Z,955.66
2022-12-11T11:37:19.724Z,955.63
2022-12-11T11:38:19.739Z,955.61
2022-12-11T11:39:19.715Z,955.62
2022-12-11T11:40:19.736Z,955.60
2022-12-11T11:41:19.684Z,955.57
2022-12-11T11:42:19.694Z,955.58
2022-12-11T11:43:19.666Z,955.62
2022-12-11T11:44:19.646Z,955.56
2022-12-11T11:45:19.756Z,955.52
2022-12-11T11:46:19.691Z,955.47
2022-12-11T11:47:19.654Z,955.50
2022-12-11T11:48:19.667Z,955.43
2022-12-11T11:49:19.641Z,955.43
2022-12-11T11:50:19.589Z,955.40
2022-12-11T11:51:19.591Z,955.36
2022-12-11T11:52:19.598Z,955.39
2022-12-11T11:53:19.563Z,955.38
2022-12-11T11:54:19.583Z,955.35
2022-12-11T11:55:22.378Z,955.38
2022-12-11T11:56:19.545Z,955.40
2022-12-11T11:57:19.520Z,955.38
2022-12-11T11:58:19.504Z,955.40
2022-12-11T11:59:19.501Z,955.40
2022-12-11T12:00:19.516Z,955.38
2022-12-11T12:01:19.501Z,955.38
2022-12-11T12:02:19.539Z,955.36
2022-12-11T12:03:19.471Z,955.40
2022-12-11T12:04:19.441Z,955.37
2022-12-11T12:05:19.450Z,955.36
2022-12-11T12:06:19.412Z,955.35
2022-12-11T12:07:19.499Z,955.35
2022-12-11T12:08:19.468Z,955.32
2022-12-11T12:09:19.466Z,955.34
2022-12-11T12:10:19.404Z,955.32
2022-12-11T12:11:19.356Z,955.32
2022-12-11T12:12:25.444Z,955.37
2022-12-11T12:13:48.190Z,955.35
2022-12-11T12:14:50.686Z,955.39
2022-12-11T12:15:20.307Z,955.38
2022-12-11T12:16:50.896Z,955.44
2022-12-11T12:17:20.341Z,955.40
2022-12-11T12:18:19.288Z,955.44
2022-12-11T12:19:19.367Z,955.51
2022-12-11T12:20:19.266Z,955.46
2022-12-11T12:21:19.287Z,955.44
2022-12-11T12:22:19.288Z,955.48
2022-12-11T12:23:19.229Z,955.48
2022-12-11T12:24:19.225Z,955.44
2022-12-11T12:25:19.232Z,955.43
2022-12-11T12:26:19.219Z,955.39
2022-12-11T12:27:50.392Z,955.41
2022-12-11T12:28:20.225Z,955.41
2022-12-11T12:29:19.167Z,955.41